Wetterdaten: Mittwoch, 25.12.2013
Datum Zeit Temperatur Luftfeuchte Luftdruck Regen Wind Richtung Richtung Taupunkt Windchill Windben
25.12.2013 00:00 11,0 C 38 % 1002,4 hPa 0,0 l/m 6,0 km/h (2 Bft) W-SW 247 -2,8 C 11,4 C 7,6 km/h (2 Bft)
25.12.2013 00:05 11,0 C 38 % 1002,2 hPa 0,0 l/m 6,8 km/h (2 Bft) S-SW 202 -2,8 C 11,3 C 4,7 km/h (1 Bft)
25.12.2013 00:10 10,2 C 39 % 1002,2 hPa 0,0 l/m 6,6 km/h (2 Bft) S-SW 202 -3,1 C 11,6 C 7,4 km/h (2 Bft)
25.12.2013 00:15 10,3 C 39 % 1002,2 hPa 0,0 l/m 6,0 km/h (2 Bft) O-SO 112 -3,0 C 11,8 C 10,6 km/h (2 Bft)
25.12.2013 00:20 10,1 C 40 % 1002,2 hPa 0,0 l/m 5,8 km/h (2 Bft) W-NW 292 -2,9 C 11,8 C 3,7 km/h (1 Bft)
25.12.2013 00:25 9,5 C 41 % 1002,4 hPa 0,0 l/m 4,8 km/h (1 Bft) W 270 -3,1 C 11,7 C 4,8 km/h (1 Bft)
25.12.2013 00:30 9,9 C 40 % 1002,4 hPa 0,0 l/m 3,9 km/h (1 Bft) O-SO 112 -3,1 C 11,4 C 10,9 km/h (2 Bft)
25.12.2013 00:35 10,0 C 40 % 1002,4 hPa 0,0 l/m 4,8 km/h (1 Bft) W-NW 292 -3,0 C 11,4 C 7,6 km/h (2 Bft)
25.12.2013 00:40 9,4 C 41 % 1002,4 hPa 0,0 l/m 5,1 km/h (1 Bft) O 90 -3,2 C 11,4 C 1,6 km/h (1 Bft)
25.12.2013 00:45 10,0 C 41 % 1001,9 hPa 0,0 l/m 3,5 km/h (1 Bft) O-SO 112 -2,6 C 11,3 C 17,2 km/h (3 Bft)
25.12.2013 00:50 10,2 C 40 % 1001,9 hPa 0,0 l/m 4,3 km/h (1 Bft) W-NW 292 -2,8 C 11,3 C 5,1 km/h (1 Bft)
25.12.2013 00:55 10,4 C 40 % 1001,9 hPa 0,0 l/m 6,8 km/h (2 Bft) W 270 -2,6 C 10,8 C 6,9 km/h (2 Bft)
25.12.2013 01:00 10,2 C 40 % 1001,9 hPa 0,0 l/m 6,8 km/h (2 Bft) S-SW 202 -2,8 C 11,0 C 7,6 km/h (2 Bft)
25.12.2013 01:05 10,2 C 39 % 1001,4 hPa 0,0 l/m 7,1 km/h (2 Bft) W-NW 292 -3,1 C 10,6 C 19,2 km/h (3 Bft)
25.12.2013 01:10 10,3 C 40 % 1001,4 hPa 0,0 l/m 6,8 km/h (2 Bft) N 360 -2,7 C 11,0 C 7,1 km/h (2 Bft)
25.12.2013 01:15 9,4 C 41 % 1001,4 hPa 0,0 l/m 4,7 km/h (1 Bft) O 90 -3,2 C 11,3 C 4,3 km/h (1 Bft)
25.12.2013 01:20 9,2 C 42 % 1001,4 hPa 0,0 l/m 3,9 km/h (1 Bft) N-NW 337 -3,0 C 11,0 C 7,6 km/h (2 Bft)
25.12.2013 01:25 9,2 C 42 % 1001,0 hPa 0,0 l/m 4,2 km/h (1 Bft) N-NO 22 -3,0 C 10,9 C 7,1 km/h (2 Bft)
25.12.2013 01:30 9,6 C 42 % 1001,0 hPa 0,0 l/m 5,1 km/h (1 Bft) O 90 -2,7 C 10,7 C 4,5 km/h (1 Bft)
25.12.2013 01:35 10,1 C 42 % 1001,0 hPa 0,0 l/m 6,1 km/h (2 Bft) N-NW 337 -2,2 C 10,4 C 12,7 km/h (3 Bft)
25.12.2013 01:40 9,7 C 42 % 1001,0 hPa 0,0 l/m 6,0 km/h (2 Bft) W-NW 292 -2,6 C 10,7 C 3,4 km/h (1 Bft)
25.12.2013 01:45 9,9 C 41 % 1000,7 hPa 0,0 l/m 5,8 km/h (2 Bft) SW 225 -2,7 C 10,7 C 4,2 km/h (1 Bft)
25.12.2013 01:50 9,3 C 43 % 1000,7 hPa 0,0 l/m 4,8 km/h (1 Bft) W 270 -2,6 C 10,8 C 3,7 km/h (1 Bft)
25.12.2013 01:55 10,1 C 41 % 1000,7 hPa 0,0 l/m 6,0 km/h (2 Bft) S 180 -2,5 C 10,3 C 19,5 km/h (3 Bft)
25.12.2013 02:00 10,2 C 41 % 1000,7 hPa 0,0 l/m 7,1 km/h (2 Bft) O 90 -2,5 C 9,8 C 21,4 km/h (4 Bft)
25.12.2013 02:05 10,6 C 40 % 1000,2 hPa 0,0 l/m 7,7 km/h (2 Bft) N-NW 337 -2,4 C 9,7 C 22,2 km/h (4 Bft)
25.12.2013 02:10 10,6 C 40 % 1000,2 hPa 0,0 l/m 7,2 km/h (2 Bft) S 180 -2,4 C 10,2 C 7,6 km/h (2 Bft)
25.12.2013 02:15 9,4 C 42 % 1000,2 hPa 0,0 l/m 5,8 km/h (2 Bft) N-NO 22 -2,8 C 10,9 C 3,5 km/h (1 Bft)
25.12.2013 02:20 9,6 C 42 % 1000,2 hPa 0,0 l/m 5,1 km/h (1 Bft) NO 45 -2,7 C 10,8 C 3,4 km/h (1 Bft)
25.12.2013 02:25 9,4 C 42 % 1000,0 hPa 0,0 l/m 4,8 km/h (1 Bft) O-SO 112 -2,8 C 10,8 C 7,7 km/h (2 Bft)
25.12.2013 02:30 10,5 C 40 % 1000,0 hPa 0,0 l/m 7,7 km/h (2 Bft) O 90 -2,5 C 9,3 C 32,5 km/h (5 Bft)
25.12.2013 02:35 10,7 C 39 % 1000,0 hPa 0,0 l/m 9,2 km/h (2 Bft) W-SW 247 -2,7 C 8,9 C 6,0 km/h (2 Bft)
25.12.2013 02:40 10,0 C 40 % 1000,0 hPa 0,0 l/m 8,4 km/h (2 Bft) S 180 -3,0 C 9,4 C 4,8 km/h (1 Bft)
25.12.2013 02:45 9,6 C 42 % 1000,2 hPa 0,0 l/m 5,5 km/h (1 Bft) S 180 -2,7 C 11,1 C 7,4 km/h (2 Bft)
25.12.2013 02:50 10,2 C 41 % 1000,2 hPa 0,0 l/m 5,5 km/h (1 Bft) NO 45 -2,5 C 11,1 C 0,0 km/h (0 Bft)
25.12.2013 02:55 9,7 C 42 % 1000,2 hPa 0,0 l/m 4,3 km/h (1 Bft) W-NW 292 -2,6 C 11,0 C 3,4 km/h (1 Bft)
25.12.2013 03:00 9,6 C 43 % 1000,2 hPa 0,0 l/m 2,7 km/h (1 Bft) NO 45 -2,4 C 10,8 C 7,6 km/h (2 Bft)
25.12.2013 03:05 8,9 C 43 % 999,9 hPa 0,0 l/m 3,1 km/h (1 Bft) S-SW 202 -3,0 C 10,6 C 3,7 km/h (1 Bft)
25.12.2013 03:10 8,7 C 44 % 999,9 hPa 0,0 l/m 3,2 km/h (1 Bft) W 270 -2,9 C 10,3 C 3,9 km/h (1 Bft)
25.12.2013 03:15 8,6 C 45 % 999,9 hPa 0,0 l/m 3,7 km/h (1 Bft) SO 135 -2,6 C 10,2 C 7,6 km/h (2 Bft)
25.12.2013 03:20 8,7 C 45 % 999,9 hPa 0,0 l/m 4,7 km/h (1 Bft) SO 135 -2,6 C 10,2 C 9,7 km/h (2 Bft)
25.12.2013 03:25 9,8 C 43 % 999,2 hPa 0,0 l/m 5,8 km/h (2 Bft) O-SO 112 -2,2 C 10,6 C 0,0 km/h (0 Bft)
25.12.2013 03:30 10,8 C 41 % 999,2 hPa 0,0 l/m 8,0 km/h (2 Bft) S 180 -1,9 C 9,3 C 6,6 km/h (2 Bft)
25.12.2013 03:35 10,5 C 41 % 999,2 hPa 0,0 l/m 8,7 km/h (2 Bft) S 180 -2,2 C 9,4 C 5,6 km/h (1 Bft)
25.12.2013 03:40 10,2 C 41 % 999,2 hPa 0,0 l/m 7,2 km/h (2 Bft) N-NW 337 -2,5 C 10,2 C 6,8 km/h (2 Bft)
25.12.2013 03:45 10,6 C 40 % 998,9 hPa 0,0 l/m 6,0 km/h (2 Bft) NW 315 -2,4 C 11,2 C 5,8 km/h (2 Bft)
25.12.2013 03:50 9,6 C 42 % 998,9 hPa 0,0 l/m 5,5 km/h (1 Bft) S-SW 202 -2,7 C 11,3 C 5,8 km/h (2 Bft)
25.12.2013 03:55 10,6 C 40 % 998,9 hPa 0,0 l/m 5,5 km/h (1 Bft) SW 225 -2,4 C 11,4 C 7,1 km/h (2 Bft)
25.12.2013 04:00 11,1 C 39 % 998,9 hPa 0,0 l/m 8,5 km/h (2 Bft) O 90 -2,3 C 9,7 C 8,2 km/h (2 Bft)
25.12.2013 04:05 10,3 C 40 % 998,9 hPa 0,0 l/m 7,9 km/h (2 Bft) O 90 -2,7 C 10,3 C 4,7 km/h (1 Bft)
25.12.2013 04:10 10,6 C 40 % 998,9 hPa 0,0 l/m 5,6 km/h (1 Bft) O-SO 112 -2,4 C 11,5 C 10,5 km/h (2 Bft)
25.12.2013 04:15 11,6 C 37 % 998,9 hPa 0,0 l/m 7,6 km/h (2 Bft) O-SO 112 -2,6 C 10,5 C 9,5 km/h (2 Bft)
25.12.2013 04:20 11,3 C 38 % 998,9 hPa 0,0 l/m 8,5 km/h (2 Bft) S 180 -2,5 C 10,1 C 12,1 km/h (2 Bft)
25.12.2013 04:24 11,2 C 38 % 998,4 hPa 0,0 l/m 8,7 km/h (2 Bft) NW 315 -2,6 C 10,1 C 6,3 km/h (2 Bft)
25.12.2013 04:25 11,2 C 38 % 998,4 hPa 0,0 l/m 8,7 km/h (2 Bft) NW 315 -2,6 C 10,1 C 6,3 km/h (2 Bft)
25.12.2013 04:30 11,5 C 37 % 998,4 hPa 0,0 l/m 8,9 km/h (2 Bft) SO 135 -2,7 C 10,2 C 18,2 km/h (3 Bft)
25.12.2013 04:35 10,4 C 40 % 998,4 hPa 0,0 l/m 6,3 km/h (2 Bft) N-NW 337 -2,6 C 12,0 C 3,9 km/h (1 Bft)
25.12.2013 04:40 10,2 C 39 % 998,4 hPa 0,0 l/m 4,8 km/h (1 Bft) S 180 -3,1 C 11,9 C 7,4 km/h (2 Bft)
25.12.2013 04:45 10,5 C 40 % 998,0 hPa 0,0 l/m 4,7 km/h (1 Bft) SO 135 -2,5 C 11,9 C 6,3 km/h (2 Bft)
25.12.2013 04:50 10,2 C 41 % 998,0 hPa 0,0 l/m 5,3 km/h (1 Bft) SO 135 -2,5 C 11,7 C 2,6 km/h (1 Bft)
25.12.2013 04:55 10,6 C 40 % 998,0 hPa 0,0 l/m 4,8 km/h (1 Bft) NW 315 -2,4 C 11,8 C 11,1 km/h (2 Bft)
25.12.2013 05:00 10,8 C 39 % 998,0 hPa 0,0 l/m 5,6 km/h (1 Bft) O 90 -2,6 C 11,6 C 12,7 km/h (3 Bft)
25.12.2013 05:05 11,1 C 39 % 997,7 hPa 0,0 l/m 7,1 km/h (2 Bft) S 180 -2,3 C 11,0 C 15,9 km/h (3 Bft)
25.12.2013 05:10 10,7 C 39 % 997,7 hPa 0,0 l/m 8,4 km/h (2 Bft) W-NW 292 -2,7 C 10,3 C 12,7 km/h (3 Bft)
25.12.2013 05:15 11,4 C 38 % 997,7 hPa 0,0 l/m 8,0 km/h (2 Bft) NO 45 -2,4 C 10,6 C 4,5 km/h (1 Bft)
25.12.2013 05:20 10,7 C 39 % 997,7 hPa 0,0 l/m 6,8 km/h (2 Bft) O 90 -2,7 C 11,6 C 11,9 km/h (2 Bft)
25.12.2013 05:25 10,5 C 40 % 997,2 hPa 0,0 l/m 5,8 km/h (2 Bft) N 360 -2,5 C 11,8 C 9,5 km/h (2 Bft)
25.12.2013 05:30 10,3 C 40 % 997,2 hPa 0,0 l/m 6,0 km/h (2 Bft) W 270 -2,7 C 11,5 C 5,5 km/h (1 Bft)
25.12.2013 05:35 10,9 C 39 % 997,2 hPa 0,0 l/m 6,3 km/h (2 Bft) S-SO 157 -2,5 C 11,4 C 9,2 km/h (2 Bft)
25.12.2013 05:40 11,0 C 39 % 997,2 hPa 0,0 l/m 6,6 km/h (2 Bft) S 180 -2,4 C 11,6 C 7,9 km/h (2 Bft)
25.12.2013 05:45 10,3 C 40 % 997,2 hPa 0,0 l/m 6,9 km/h (2 Bft) NO 45 -2,7 C 11,4 C 5,8 km/h (2 Bft)
25.12.2013 05:50 11,0 C 38 % 997,2 hPa 0,0 l/m 5,3 km/h (1 Bft) S-SO 157 -2,8 C 11,8 C 3,2 km/h (1 Bft)
25.12.2013 05:55 11,4 C 37 % 997,2 hPa 0,0 l/m 5,6 km/h (1 Bft) W-NW 292 -2,8 C 11,8 C 9,2 km/h (2 Bft)
25.12.2013 06:00 11,2 C 38 % 997,2 hPa 0,0 l/m 6,4 km/h (2 Bft) SO 135 -2,6 C 11,9 C 9,2 km/h (2 Bft)
25.12.2013 06:05 11,7 C 37 % 997,2 hPa 0,0 l/m 7,7 km/h (2 Bft) S 180 -2,5 C 11,0 C 6,3 km/h (2 Bft)
25.12.2013 06:10 11,5 C 37 % 997,2 hPa 0,0 l/m 7,7 km/h (2 Bft) N-NO 22 -2,7 C 11,2 C 14,6 km/h (3 Bft)
25.12.2013 06:15 11,6 C 37 % 997,2 hPa 0,0 l/m 8,4 km/h (2 Bft) W-SW 247 -2,6 C 10,7 C 10,6 km/h (2 Bft)
25.12.2013 06:20 11,5 C 37 % 997,2 hPa 0,0 l/m 7,7 km/h (2 Bft) O-SO 112 -2,7 C 11,3 C 10,9 km/h (2 Bft)
25.12.2013 06:25 11,8 C 37 % 998,1 hPa 0,0 l/m 9,0 km/h (2 Bft) O-SO 112 -2,4 C 10,5 C 7,6 km/h (2 Bft)
25.12.2013 06:30 11,8 C 36 % 998,1 hPa 0,0 l/m 9,3 km/h (2 Bft) S 180 -2,8 C 10,3 C 9,2 km/h (2 Bft)
25.12.2013 06:35 11,1 C 37 % 998,1 hPa 0,0 l/m 6,9 km/h (2 Bft) O-SO 112 -3,0 C 12,1 C 13,0 km/h (3 Bft)
25.12.2013 06:40 11,7 C 36 % 998,1 hPa 0,0 l/m 6,9 km/h (2 Bft) S-SO 157 -2,9 C 12,1 C 8,5 km/h (2 Bft)
25.12.2013 06:45 11,8 C 36 % 998,5 hPa 0,0 l/m 8,0 km/h (2 Bft) S 180 -2,8 C 11,2 C 10,8 km/h (2 Bft)
25.12.2013 06:50 11,7 C 36 % 998,5 hPa 0,0 l/m 8,4 km/h (2 Bft) N-NO 22 -2,9 C 11,0 C 12,2 km/h (2 Bft)
25.12.2013 06:55 11,9 C 36 % 998,5 hPa 0,0 l/m 9,0 km/h (2 Bft) S-SO 157 -2,7 C 10,6 C 16,3 km/h (3 Bft)
25.12.2013 07:00 11,7 C 36 % 998,5 hPa 0,0 l/m 10,3 km/h (2 Bft) S 180 -2,9 C 9,9 C 17,1 km/h (3 Bft)
25.12.2013 07:05 11,6 C 36 % 999,2 hPa 0,0 l/m 10,6 km/h (2 Bft) SO 135 -2,9 C 9,7 C 9,2 km/h (2 Bft)
25.12.2013 07:10 11,9 C 36 % 999,2 hPa 0,0 l/m 10,3 km/h (2 Bft) W-NW 292 -2,7 C 9,9 C 7,2 km/h (2 Bft)
25.12.2013 07:15 11,4 C 36 % 999,2 hPa 0,0 l/m 8,5 km/h (2 Bft) NW 315 -3,1 C 10,8 C 7,1 km/h (2 Bft)
25.12.2013 07:20 10,7 C 38 % 999,2 hPa 0,0 l/m 7,1 km/h (2 Bft) W 270 -3,0 C 11,6 C 7,1 km/h (2 Bft)
25.12.2013 07:25 10,2 C 38 % 999,6 hPa 0,0 l/m 5,6 km/h (1 Bft) S 180 -3,5 C 12,1 C 6,9 km/h (2 Bft)
25.12.2013 07:30 10,3 C 39 % 999,6 hPa 0,0 l/m 5,0 km/h (1 Bft) O 90 -3,0 C 11,8 C 3,1 km/h (1 Bft)
25.12.2013 07:35 9,9 C 40 % 999,6 hPa 0,0 l/m 4,0 km/h (1 Bft) S-SO 157 -3,1 C 11,3 C 8,2 km/h (2 Bft)
25.12.2013 07:40 10,5 C 39 % 999,6 hPa 0,0 l/m 3,9 km/h (1 Bft) W-SW 247 -2,9 C 11,1 C 7,7 km/h (2 Bft)
25.12.2013 07:45 10,2 C 39 % 999,6 hPa 0,0 l/m 5,0 km/h (1 Bft) N 360 -3,1 C 11,1 C 6,4 km/h (2 Bft)
25.12.2013 07:50 9,7 C 41 % 999,6 hPa 0,0 l/m 4,7 km/h (1 Bft) W 270 -2,9 C 10,9 C 13,2 km/h (3 Bft)
25.12.2013 07:55 9,6 C 41 % 999,6 hPa 0,0 l/m 4,7 km/h (1 Bft) N-NO 22 -3,0 C 10,9 C 6,8 km/h (2 Bft)
25.12.2013 08:00 9,5 C 42 % 999,6 hPa 0,0 l/m 5,8 km/h (2 Bft) N-NW 337 -2,8 C 10,6 C 8,9 km/h (2 Bft)
25.12.2013 08:05 9,5 C 42 % 999,4 hPa 0,0 l/m 5,0 km/h (1 Bft) NO 45 -2,8 C 10,6 C 4,0 km/h (1 Bft)
25.12.2013 08:10 8,7 C 44 % 999,4 hPa 0,0 l/m 4,0 km/h (1 Bft) W-NW 292 -2,9 C 10,2 C 2,9 km/h (1 Bft)
25.12.2013 08:15 8,2 C 45 % 999,4 hPa 0,0 l/m 3,2 km/h (1 Bft) O-NO 67 -3,0 C 9,7 C 7,1 km/h (2 Bft)
25.12.2013 08:20 9,0 C 45 % 999,4 hPa 0,0 l/m 3,4 km/h (1 Bft) N-NW 337 -2,3 C 9,4 C 8,5 km/h (2 Bft)
25.12.2013 08:25 8,9 C 45 % 999,3 hPa 0,0 l/m 3,7 km/h (1 Bft) O-SO 112 -2,4 C 9,6 C 4,0 km/h (1 Bft)
25.12.2013 08:30 8,8 C 46 % 999,3 hPa 0,0 l/m 3,9 km/h (1 Bft) NO 45 -2,2 C 9,4 C 7,6 km/h (2 Bft)
25.12.2013 08:35 8,3 C 46 % 999,3 hPa 0,0 l/m 3,4 km/h (1 Bft) NO 45 -2,6 C 9,2 C 2,1 km/h (1 Bft)
25.12.2013 08:40 8,5 C 47 % 999,3 hPa 0,0 l/m 4,0 km/h (1 Bft) N-NO 22 -2,2 C 8,9 C 4,3 km/h (1 Bft)
25.12.2013 08:45 8,0 C 48 % 999,1 hPa 0,0 l/m 4,0 km/h (1 Bft) N 360 -2,3 C 8,9 C 6,9 km/h (2 Bft)
25.12.2013 08:50 7,7 C 50 % 999,1 hPa 0,0 l/m 5,1 km/h (1 Bft) N 360 -2,1 C 8,3 C 5,5 km/h (1 Bft)
25.12.2013 08:55 7,8 C 50 % 999,1 hPa 0,0 l/m 4,8 km/h (1 Bft) O-SO 112 -2,0 C 8,4 C 2,6 km/h (1 Bft)
25.12.2013 09:00 7,7 C 50 % 999,1 hPa 0,0 l/m 4,0 km/h (1 Bft) N 360 -2,1 C 8,7 C 3,1 km/h (1 Bft)
25.12.2013 09:05 7,6 C 52 % 998,7 hPa 0,0 l/m 3,2 km/h (1 Bft) N 360 -1,6 C 8,5 C 7,6 km/h (2 Bft)
25.12.2013 09:10 7,6 C 50 % 998,7 hPa 0,0 l/m 3,2 km/h (1 Bft) NW 315 -2,1 C 8,8 C 3,1 km/h (1 Bft)
25.12.2013 09:15 7,7 C 52 % 998,7 hPa 0,0 l/m 3,7 km/h (1 Bft) O-NO 67 -1,5 C 9,2 C 2,1 km/h (1 Bft)
25.12.2013 09:20 7,9 C 51 % 998,7 hPa 0,0 l/m 2,9 km/h (1 Bft) NW 315 -1,6 C 9,4 C 0,0 km/h (0 Bft)
25.12.2013 09:25 8,0 C 51 % 998,5 hPa 0,0 l/m 1,9 km/h (1 Bft) O 90 -1,5 C 9,3 C 4,3 km/h (1 Bft)
25.12.2013 09:30 8,6 C 49 % 998,5 hPa 0,0 l/m 3,7 km/h (1 Bft) N 360 -1,5 C 9,9 C 12,7 km/h (3 Bft)
25.12.2013 09:35 8,9 C 50 % 998,5 hPa 0,0 l/m 4,7 km/h (1 Bft) N-NO 22 -0,9 C 10,4 C 6,3 km/h (2 Bft)
25.12.2013 09:40 8,8 C 50 % 998,5 hPa 0,0 l/m 4,0 km/h (1 Bft) W-NW 292 -1,0 C 10,7 C 3,5 km/h (1 Bft)
25.12.2013 09:45 9,3 C 49 % 998,2 hPa 0,0 l/m 4,0 km/h (1 Bft) W-SW 247 -0,9 C 10,9 C 4,5 km/h (1 Bft)
25.12.2013 09:50 9,7 C 49 % 998,2 hPa 0,0 l/m 4,3 km/h (1 Bft) W-NW 292 -0,5 C 11,3 C 4,5 km/h (1 Bft)
25.12.2013 09:55 10,0 C 47 % 998,2 hPa 0,0 l/m 4,5 km/h (1 Bft) N-NW 337 -0,8 C 11,6 C 10,5 km/h (2 Bft)
25.12.2013 10:00 10,3 C 46 % 998,2 hPa 0,0 l/m 4,8 km/h (1 Bft) N 360 -0,8 C 11,9 C 7,6 km/h (2 Bft)
25.12.2013 10:05 10,5 C 46 % 998,4 hPa 0,0 l/m 5,8 km/h (2 Bft) W-NW 292 -0,6 C 11,9 C 6,1 km/h (2 Bft)
25.12.2013 10:10 10,4 C 46 % 998,4 hPa 0,0 l/m 4,3 km/h (1 Bft) N-NW 337 -0,7 C 12,3 C 4,5 km/h (1 Bft)
25.12.2013 10:15 11,5 C 43 % 998,4 hPa 0,0 l/m 5,3 km/h (1 Bft) N 360 -0,6 C 12,6 C 9,7 km/h (2 Bft)
25.12.2013 10:18 11,6 C 43 % 998,4 hPa 0,0 l/m 6,3 km/h (2 Bft) N 360 -0,5 C 12,6 C 7,4 km/h (2 Bft)
25.12.2013 10:20 11,6 C 43 % 998,4 hPa 0,0 l/m 6,3 km/h (2 Bft) N 360 -0,5 C 12,6 C 7,4 km/h (2 Bft)
25.12.2013 10:25 11,5 C 43 % 998,2 hPa 0,0 l/m 7,4 km/h (2 Bft) N 360 -0,6 C 12,0 C 8,7 km/h (2 Bft)
25.12.2013 10:30 11,2 C 43 % 998,2 hPa 0,0 l/m 6,6 km/h (2 Bft) N 360 -0,9 C 12,9 C 4,2 km/h (1 Bft)
25.12.2013 10:35 11,1 C 43 % 998,2 hPa 0,0 l/m 5,5 km/h (1 Bft) N-NW 337 -1,0 C 13,3 C 9,7 km/h (2 Bft)
25.12.2013 10:40 11,7 C 43 % 998,2 hPa 0,0 l/m 5,6 km/h (1 Bft) O 90 -0,5 C 13,5 C 4,0 km/h (1 Bft)
25.12.2013 10:45 11,1 C 43 % 998,4 hPa 0,0 l/m 5,1 km/h (1 Bft) N-NW 337 -1,0 C 13,5 C 4,0 km/h (1 Bft)
25.12.2013 10:50 11,1 C 43 % 998,4 hPa 0,0 l/m 4,0 km/h (1 Bft) N-NW 337 -1,0 C 13,5 C 5,1 km/h (1 Bft)
25.12.2013 10:55 11,1 C 44 % 998,4 hPa 0,0 l/m 4,5 km/h (1 Bft) O 90 -0,7 C 13,4 C 4,2 km/h (1 Bft)
25.12.2013 11:00 11,1 C 44 % 998,4 hPa 0,0 l/m 3,7 km/h (1 Bft) NO 45 -0,7 C 13,5 C 6,8 km/h (2 Bft)
25.12.2013 11:05 11,3 C 44 % 998,2 hPa 0,0 l/m 3,4 km/h (1 Bft) NO 45 -0,5 C 13,5 C 6,0 km/h (2 Bft)
25.12.2013 11:10 11,7 C 42 % 998,2 hPa 0,0 l/m 5,3 km/h (1 Bft) N-NW 337 -0,8 C 13,8 C 6,1 km/h (2 Bft)
25.12.2013 11:15 12,1 C 42 % 998,2 hPa 0,0 l/m 5,5 km/h (1 Bft) N 360 -0,4 C 14,1 C 5,5 km/h (1 Bft)
25.12.2013 11:20 12,0 C 41 % 998,2 hPa 0,0 l/m 5,5 km/h (1 Bft) N-NW 337 -0,8 C 14,2 C 6,0 km/h (2 Bft)
25.12.2013 11:25 12,3 C 41 % 998,0 hPa 0,0 l/m 5,6 km/h (1 Bft) O-SO 112 -0,6 C 14,2 C 7,1 km/h (2 Bft)
25.12.2013 11:30 11,8 C 41 % 998,0 hPa 0,0 l/m 5,5 km/h (1 Bft) NO 45 -1,0 C 14,2 C 8,0 km/h (2 Bft)
25.12.2013 11:35 11,8 C 42 % 998,0 hPa 0,0 l/m 5,1 km/h (1 Bft) N-NO 22 -0,7 C 13,9 C 7,4 km/h (2 Bft)
25.12.2013 11:40 11,7 C 42 % 998,0 hPa 0,0 l/m 4,5 km/h (1 Bft) NW 315 -0,8 C 13,8 C 2,3 km/h (1 Bft)
25.12.2013 11:45 11,8 C 42 % 997,8 hPa 0,0 l/m 4,0 km/h (1 Bft) N 360 -0,7 C 13,8 C 6,8 km/h (2 Bft)
25.12.2013 11:50 11,4 C 42 % 997,8 hPa 0,0 l/m 4,8 km/h (1 Bft) N-NW 337 -1,0 C 13,8 C 7,6 km/h (2 Bft)
25.12.2013 11:55 11,1 C 44 % 997,8 hPa 0,0 l/m 6,0 km/h (2 Bft) N-NW 337 -0,7 C 13,7 C 6,4 km/h (2 Bft)
25.12.2013 12:00 10,7 C 45 % 997,8 hPa 0,0 l/m 5,6 km/h (1 Bft) NO 45 -0,7 C 13,5 C 0,0 km/h (0 Bft)
25.12.2013 12:05 10,8 C 45 % 997,4 hPa 0,0 l/m 5,0 km/h (1 Bft) N-NW 337 -0,6 C 13,2 C 7,1 km/h (2 Bft)
25.12.2013 12:10 10,9 C 45 % 997,4 hPa 0,0 l/m 4,2 km/h (1 Bft) N 360 -0,6 C 13,1 C 3,9 km/h (1 Bft)
25.12.2013 12:15 10,8 C 45 % 997,4 hPa 0,0 l/m 2,6 km/h (1 Bft) N-NO 22 -0,6 C 13,0 C 1,8 km/h (1 Bft)
25.12.2013 12:20 10,9 C 45 % 997,4 hPa 0,0 l/m 2,7 km/h (1 Bft) NO 45 -0,6 C 13,0 C 4,2 km/h (1 Bft)
25.12.2013 12:25 11,0 C 45 % 997,2 hPa 0,0 l/m 3,7 km/h (1 Bft) N-NW 337 -0,5 C 12,9 C 7,2 km/h (2 Bft)
25.12.2013 12:30 10,9 C 46 % 997,2 hPa 0,0 l/m 2,7 km/h (1 Bft) S 180 -0,3 C 13,0 C 0,0 km/h (0 Bft)
25.12.2013 12:35 11,1 C 46 % 997,2 hPa 0,0 l/m 2,4 km/h (1 Bft) O 90 -0,1 C 13,1 C 3,4 km/h (1 Bft)
25.12.2013 12:40 11,2 C 46 % 997,2 hPa 0,0 l/m 2,7 km/h (1 Bft) N-NW 337 0,0 C 13,3 C 5,3 km/h (1 Bft)
25.12.2013 12:45 11,2 C 46 % 997,0 hPa 0,0 l/m 4,2 km/h (1 Bft) N 360 0,0 C 13,5 C 6,4 km/h (2 Bft)
25.12.2013 12:50 11,2 C 45 % 997,0 hPa 0,0 l/m 5,0 km/h (1 Bft) N-NO 22 -0,3 C 13,6 C 0,0 km/h (0 Bft)
25.12.2013 12:55 11,3 C 46 % 997,0 hPa 0,0 l/m 2,7 km/h (1 Bft) N 360 0,1 C 13,8 C 0,0 km/h (0 Bft)
25.12.2013 13:00 11,8 C 43 % 997,0 hPa 0,0 l/m 2,7 km/h (1 Bft) N-NW 337 -0,4 C 14,0 C 5,5 km/h (1 Bft)
25.12.2013 13:05 12,1 C 42 % 997,1 hPa 0,0 l/m 4,5 km/h (1 Bft) N-NW 337 -0,4 C 14,2 C 8,9 km/h (2 Bft)
25.12.2013 13:10 11,6 C 43 % 997,1 hPa 0,0 l/m 6,0 km/h (2 Bft) O-SO 112 -0,5 C 14,0 C 7,7 km/h (2 Bft)
25.12.2013 13:15 11,5 C 44 % 997,1 hPa 0,0 l/m 3,9 km/h (1 Bft) W-NW 292 -0,3 C 13,8 C 1,6 km/h (1 Bft)
25.12.2013 13:20 11,6 C 44 % 997,1 hPa 0,0 l/m 2,7 km/h (1 Bft) O-NO 67 -0,2 C 13,8 C 0,0 km/h (0 Bft)
25.12.2013 13:25 12,2 C 43 % 996,4 hPa 0,0 l/m 2,9 km/h (1 Bft) N 360 -0,0 C 14,1 C 5,3 km/h (1 Bft)
25.12.2013 13:30 11,4 C 44 % 996,4 hPa 0,0 l/m 4,5 km/h (1 Bft) N-NW 337 -0,4 C 14,2 C 6,1 km/h (2 Bft)
25.12.2013 13:35 11,7 C 43 % 996,4 hPa 0,0 l/m 5,3 km/h (1 Bft) NW 315 -0,5 C 13,9 C 11,7 km/h (2 Bft)
25.12.2013 13:40 11,5 C 43 % 996,4 hPa 0,0 l/m 5,1 km/h (1 Bft) N-NW 337 -0,6 C 13,8 C 8,4 km/h (2 Bft)
25.12.2013 13:45 11,6 C 43 % 996,8 hPa 0,0 l/m 5,3 km/h (1 Bft) N-NW 337 -0,5 C 13,7 C 5,5 km/h (1 Bft)
25.12.2013 13:50 11,4 C 44 % 996,8 hPa 0,0 l/m 2,7 km/h (1 Bft) N 360 -0,4 C 13,6 C 5,8 km/h (2 Bft)
25.12.2013 13:55 11,0 C 45 % 996,8 hPa 0,0 l/m 3,2 km/h (1 Bft) O 90 -0,5 C 13,4 C 5,1 km/h (1 Bft)
25.12.2013 14:00 10,7 C 47 % 996,8 hPa 0,0 l/m 4,3 km/h (1 Bft) N-NW 337 -0,1 C 13,3 C 3,5 km/h (1 Bft)
25.12.2013 14:05 10,7 C 46 % 996,6 hPa 0,0 l/m 3,9 km/h (1 Bft) N-NW 337 -0,4 C 13,2 C 4,8 km/h (1 Bft)
25.12.2013 14:10 10,6 C 47 % 996,6 hPa 0,0 l/m 4,5 km/h (1 Bft) N-NW 337 -0,2 C 12,9 C 6,9 km/h (2 Bft)
25.12.2013 14:15 10,6 C 45 % 996,6 hPa 0,0 l/m 4,2 km/h (1 Bft) O-SO 112 -0,8 C 12,7 C 9,0 km/h (2 Bft)
25.12.2013 14:20 11,0 C 45 % 996,6 hPa 0,0 l/m 3,5 km/h (1 Bft) N 360 -0,5 C 12,7 C 5,6 km/h (1 Bft)
25.12.2013 14:25 10,8 C 45 % 996,4 hPa 0,0 l/m 3,7 km/h (1 Bft) N-NO 22 -0,6 C 12,5 C 7,1 km/h (2 Bft)
25.12.2013 14:30 11,2 C 43 % 996,4 hPa 0,0 l/m 4,5 km/h (1 Bft) NW 315 -0,9 C 12,6 C 6,4 km/h (2 Bft)
25.12.2013 14:35 10,5 C 44 % 996,4 hPa 0,0 l/m 5,0 km/h (1 Bft) SW 225 -1,2 C 12,5 C 4,2 km/h (1 Bft)
25.12.2013 14:40 10,8 C 45 % 996,4 hPa 0,0 l/m 4,7 km/h (1 Bft) NO 45 -0,6 C 12,5 C 3,9 km/h (1 Bft)
25.12.2013 14:45 10,2 C 46 % 996,2 hPa 0,0 l/m 3,5 km/h (1 Bft) N 360 -0,9 C 12,4 C 1,8 km/h (1 Bft)
25.12.2013 14:50 10,0 C 48 % 996,2 hPa 0,0 l/m 2,9 km/h (1 Bft) N 360 -0,5 C 12,7 C 3,1 km/h (1 Bft)
25.12.2013 14:55 9,6 C 49 % 996,2 hPa 0,0 l/m 3,5 km/h (1 Bft) NO 45 -0,6 C 12,4 C 0,0 km/h (0 Bft)
25.12.2013 15:00 9,5 C 49 % 996,2 hPa 0,0 l/m 2,6 km/h (1 Bft) W-NW 292 -0,7 C 12,1 C 0,0 km/h (0 Bft)
25.12.2013 15:05 9,6 C 48 % 996,4 hPa 0,0 l/m 2,1 km/h (1 Bft) W 270 -0,9 C 11,6 C 1,9 km/h (1 Bft)
25.12.2013 15:10 9,4 C 49 % 996,4 hPa 0,0 l/m 2,3 km/h (1 Bft) N-NO 22 -0,8 C 11,1 C 2,7 km/h (1 Bft)
25.12.2013 15:15 10,4 C 45 % 996,4 hPa 0,0 l/m 3,9 km/h (1 Bft) N-NO 22 -1,0 C 10,9 C 4,0 km/h (1 Bft)
25.12.2013 15:19 10,6 C 44 % 996,4 hPa 0,0 l/m 4,7 km/h (1 Bft) O 90 -1,1 C 11,1 C 7,2 km/h (2 Bft)
25.12.2013 15:20 10,6 C 44 % 996,4 hPa 0,0 l/m 4,7 km/h (1 Bft) O 90 -1,1 C 11,1 C 7,2 km/h (2 Bft)
25.12.2013 15:25 10,3 C 46 % 996,4 hPa 0,0 l/m 4,7 km/h (1 Bft) W-SW 247 -0,8 C 11,4 C 4,3 km/h (1 Bft)
25.12.2013 15:30 10,6 C 44 % 996,4 hPa 0,0 l/m 4,0 km/h (1 Bft) S 180 -1,1 C 11,4 C 6,4 km/h (2 Bft)
25.12.2013 15:35 9,9 C 46 % 996,4 hPa 0,0 l/m 5,8 km/h (2 Bft) S 180 -1,2 C 11,3 C 7,1 km/h (2 Bft)
25.12.2013 15:40 9,6 C 47 % 996,4 hPa 0,0 l/m 7,1 km/h (2 Bft) S-SO 157 -1,1 C 10,2 C 9,2 km/h (2 Bft)
25.12.2013 15:45 9,1 C 48 % 997,1 hPa 0,0 l/m 7,7 km/h (2 Bft) S 180 -1,3 C 9,4 C 9,8 km/h (2 Bft)
25.12.2013 15:50 8,7 C 49 % 997,1 hPa 0,0 l/m 7,7 km/h (2 Bft) S 180 -1,4 C 8,9 C 8,2 km/h (2 Bft)
25.12.2013 15:55 8,1 C 50 % 997,1 hPa 0,0 l/m 5,5 km/h (1 Bft) S-SW 202 -1,7 C 9,9 C 3,9 km/h (1 Bft)
25.12.2013 16:00 8,1 C 51 % 997,1 hPa 0,0 l/m 4,8 km/h (1 Bft) S 180 -1,4 C 9,7 C 7,7 km/h (2 Bft)
25.12.2013 16:05 8,3 C 51 % 997,4 hPa 0,0 l/m 4,8 km/h (1 Bft) S 180 -1,2 C 9,3 C 6,1 km/h (2 Bft)
25.12.2013 16:10 8,5 C 51 % 997,4 hPa 0,0 l/m 5,3 km/h (1 Bft) S-SO 157 -1,0 C 8,8 C 7,4 km/h (2 Bft)
25.12.2013 16:15 7,8 C 53 % 997,4 hPa 0,0 l/m 5,1 km/h (1 Bft) S-SO 157 -1,2 C 8,9 C 5,6 km/h (1 Bft)
25.12.2013 16:20 7,5 C 55 % 997,4 hPa 0,0 l/m 6,0 km/h (2 Bft) S-SW 202 -0,9 C 8,4 C 9,8 km/h (2 Bft)
25.12.2013 16:25 8,1 C 56 % 997,8 hPa 0,0 l/m 7,1 km/h (2 Bft) S-SW 202 -0,1 C 7,7 C 11,4 km/h (2 Bft)
25.12.2013 16:30 7,6 C 57 % 997,8 hPa 0,0 l/m 8,9 km/h (2 Bft) S-SO 157 -0,4 C 6,0 C 7,7 km/h (2 Bft)
25.12.2013 16:35 7,3 C 58 % 997,8 hPa 0,0 l/m 7,6 km/h (2 Bft) S-SW 202 -0,4 C 7,0 C 6,9 km/h (2 Bft)
25.12.2013 16:40 7,2 C 59 % 997,8 hPa 0,0 l/m 7,2 km/h (2 Bft) S 180 -0,3 C 7,1 C 12,7 km/h (3 Bft)
25.12.2013 16:45 7,6 C 59 % 998,2 hPa 0,0 l/m 7,1 km/h (2 Bft) S-SW 202 0,1 C 7,1 C 9,8 km/h (2 Bft)
25.12.2013 16:50 7,3 C 59 % 998,2 hPa 0,0 l/m 7,9 km/h (2 Bft) S 180 -0,2 C 6,0 C 7,1 km/h (2 Bft)
25.12.2013 16:55 7,1 C 60 % 998,2 hPa 0,0 l/m 7,2 km/h (2 Bft) S-SO 157 -0,1 C 6,7 C 10,9 km/h (2 Bft)
25.12.2013 17:00 7,1 C 60 % 998,2 hPa 0,0 l/m 7,4 km/h (2 Bft) S 180 -0,1 C 6,5 C 6,8 km/h (2 Bft)
25.12.2013 17:05 7,1 C 60 % 998,8 hPa 0,0 l/m 7,2 km/h (2 Bft) S 180 -0,1 C 6,7 C 9,0 km/h (2 Bft)
25.12.2013 17:10 6,9 C 61 % 998,8 hPa 0,0 l/m 6,3 km/h (2 Bft) O-SO 112 -0,1 C 7,2 C 9,7 km/h (2 Bft)
25.12.2013 17:15 6,7 C 60 % 998,8 hPa 0,0 l/m 6,3 km/h (2 Bft) S-SW 202 -0,5 C 6,8 C 6,4 km/h (2 Bft)
25.12.2013 17:20 6,3 C 60 % 998,8 hPa 0,0 l/m 6,3 km/h (2 Bft) W 270 -0,9 C 6,4 C 7,6 km/h (2 Bft)
25.12.2013 17:25 5,7 C 64 % 999,1 hPa 0,0 l/m 6,4 km/h (2 Bft) W-SW 247 -0,6 C 5,9 C 6,4 km/h (2 Bft)
25.12.2013 17:30 5,0 C 67 % 999,1 hPa 0,0 l/m 6,4 km/h (2 Bft) W-SW 247 -0,6 C 4,9 C 7,9 km/h (2 Bft)
25.12.2013 17:35 4,8 C 71 % 999,1 hPa 0,0 l/m 5,5 km/h (1 Bft) S-SW 202 -0,0 C 4,4 C 7,2 km/h (2 Bft)
25.12.2013 17:40 4,7 C 73 % 999,1 hPa 0,0 l/m 5,3 km/h (1 Bft) S 180 0,3 C 4,2 C 7,2 km/h (2 Bft)
25.12.2013 17:45 4,4 C 74 % 999,4 hPa 0,0 l/m 6,0 km/h (2 Bft) S-SO 157 0,2 C 3,8 C 9,7 km/h (2 Bft)
25.12.2013 17:50 4,2 C 75 % 999,4 hPa 0,0 l/m 7,1 km/h (2 Bft) S 180 0,2 C 2,4 C 10,9 km/h (2 Bft)
25.12.2013 17:55 4,1 C 76 % 999,4 hPa 0,0 l/m 6,4 km/h (2 Bft) S-SO 157 0,3 C 3,2 C 6,4 km/h (2 Bft)
25.12.2013 18:00 4,3 C 78 % 999,4 hPa 0,0 l/m 6,0 km/h (2 Bft) S 180 0,8 C 3,6 C 7,4 km/h (2 Bft)
25.12.2013 18:05 4,4 C 78 % 999,1 hPa 0,0 l/m 4,8 km/h (1 Bft) S-SO 157 0,9 C 4,3 C 5,1 km/h (1 Bft)
25.12.2013 18:10 4,4 C 80 % 999,1 hPa 0,0 l/m 6,1 km/h (2 Bft) S 180 1,3 C 3,9 C 7,4 km/h (2 Bft)
25.12.2013 18:15 4,4 C 81 % 999,1 hPa 0,0 l/m 6,3 km/h (2 Bft) W 270 1,4 C 3,9 C 3,7 km/h (1 Bft)
25.12.2013 18:20 4,3 C 79 % 999,1 hPa 0,0 l/m 3,5 km/h (1 Bft) S-SW 202 1,0 C 5,1 C 0,0 km/h (0 Bft)
25.12.2013 18:25 4,2 C 79 % 999,2 hPa 0,0 l/m 2,3 km/h (1 Bft) S 180 0,9 C 5,2 C 4,2 km/h (1 Bft)
25.12.2013 18:30 4,2 C 79 % 999,2 hPa 0,0 l/m 3,2 km/h (1 Bft) O 90 0,9 C 5,2 C 3,9 km/h (1 Bft)
25.12.2013 18:35 4,2 C 79 % 999,2 hPa 0,0 l/m 2,3 km/h (1 Bft) S 180 0,9 C 5,3 C 0,0 km/h (0 Bft)
25.12.2013 18:40 4,1 C 79 % 999,2 hPa 0,0 l/m 1,1 km/h (1 Bft) SO 135 0,8 C 5,3 C 5,8 km/h (2 Bft)
25.12.2013 18:45 4,3 C 80 % 999,4 hPa 0,0 l/m 1,8 km/h (1 Bft) SO 135 1,2 C 5,3 C 0,0 km/h (0 Bft)
25.12.2013 18:50 4,4 C 80 % 999,4 hPa 0,0 l/m 1,8 km/h (1 Bft) O-NO 67 1,3 C 5,3 C 0,0 km/h (0 Bft)
25.12.2013 18:55 4,4 C 80 % 999,4 hPa 0,0 l/m 0,2 km/h (0 Bft) SO 135 1,3 C 5,3 C 0,0 km/h (0 Bft)
25.12.2013 19:00 4,4 C 80 % 999,4 hPa 0,0 l/m 0,6 km/h (0 Bft) O 90 1,3 C 5,4 C 0,0 km/h (0 Bft)
25.12.2013 19:05 4,5 C 82 % 999,2 hPa 0,0 l/m 0,6 km/h (0 Bft) O-NO 67 1,7 C 5,4 C 0,0 km/h (0 Bft)
25.12.2013 19:10 4,2 C 80 % 999,2 hPa 0,0 l/m 0,0 km/h (0 Bft) O-NO 67 1,1 C 5,3 C 0,0 km/h (0 Bft)
25.12.2013 19:15 4,0 C 79 % 999,2 hPa 0,0 l/m 0,0 km/h (0 Bft) O-NO 67 0,7 C 5,2 C 0,0 km/h (0 Bft)
25.12.2013 19:20 3,9 C 80 % 999,2 hPa 0,0 l/m 0,0 km/h (0 Bft) O-NO 67 0,8 C 5,2 C 0,0 km/h (0 Bft)
25.12.2013 19:25 3,9 C 80 % 999,1 hPa 0,0 l/m 0,0 km/h (0 Bft) O-NO 67 0,8 C 5,2 C 0,0 km/h (0 Bft)
25.12.2013 19:30 3,9 C 80 % 999,1 hPa 0,0 l/m 0,0 km/h (0 Bft) SO 135 0,8 C 5,2 C 0,0 km/h (0 Bft)
25.12.2013 19:35 3,9 C 80 % 999,1 hPa 0,0 l/m 0,0 km/h (0 Bft) NO 45 0,8 C 5,0 C 0,0 km/h (0 Bft)
25.12.2013 19:40 3,9 C 80 % 999,1 hPa 0,0 l/m 0,0 km/h (0 Bft) NO 45 0,8 C 5,0 C 0,0 km/h (0 Bft)
25.12.2013 19:45 3,9 C 80 % 999,2 hPa 0,0 l/m 0,0 km/h (0 Bft) NO 45 0,8 C 5,0 C 0,0 km/h (0 Bft)
25.12.2013 19:50 3,8 C 80 % 999,2 hPa 0,0 l/m 0,0 km/h (0 Bft) NO 45 0,7 C 5,0 C 0,0 km/h (0 Bft)
25.12.2013 19:55 3,7 C 80 % 999,2 hPa 0,0 l/m 0,0 km/h (0 Bft) NO 45 0,6 C 4,9 C 0,0 km/h (0 Bft)
25.12.2013 20:00 3,6 C 80 % 999,2 hPa 0,0 l/m 0,0 km/h (0 Bft) NO 45 0,5 C 4,9 C 0,0 km/h (0 Bft)
25.12.2013 20:05 3,6 C 80 % 999,0 hPa 0,0 l/m 0,0 km/h (0 Bft) NO 45 0,5 C 4,8 C 0,0 km/h (0 Bft)
25.12.2013 20:10 3,8 C 81 % 999,0 hPa 0,0 l/m 0,0 km/h (0 Bft) NO 45 0,8 C 4,7 C 0,0 km/h (0 Bft)
25.12.2013 20:15 3,6 C 81 % 999,0 hPa 0,0 l/m 0,0 km/h (0 Bft) NO 45 0,7 C 4,8 C 0,0 km/h (0 Bft)
25.12.2013 20:19 3,6 C 81 % 999,0 hPa 0,0 l/m 0,0 km/h (0 Bft) N-NW 337 0,7 C 4,8 C 3,9 km/h (1 Bft)
25.12.2013 20:20 3,6 C 81 % 999,0 hPa 0,0 l/m 0,0 km/h (0 Bft) N-NW 337 0,7 C 4,8 C 3,9 km/h (1 Bft)
25.12.2013 20:25 3,7 C 81 % 999,1 hPa 0,0 l/m 0,6 km/h (0 Bft) NO 45 0,7 C 4,8 C 3,9 km/h (1 Bft)
25.12.2013 20:30 4,0 C 81 % 999,1 hPa 0,0 l/m 0,8 km/h (0 Bft) NO 45 1,0 C 4,9 C 0,0 km/h (0 Bft)
25.12.2013 20:35 3,9 C 82 % 999,1 hPa 0,0 l/m 0,5 km/h (0 Bft) N-NW 337 1,1 C 5,0 C 0,0 km/h (0 Bft)
25.12.2013 20:40 3,9 C 82 % 999,1 hPa 0,0 l/m 0,5 km/h (0 Bft) N-NW 337 1,1 C 5,0 C 0,0 km/h (0 Bft)
25.12.2013 20:45 3,6 C 81 % 999,1 hPa 0,0 l/m 0,0 km/h (0 Bft) NW 315 0,7 C 4,9 C 0,0 km/h (0 Bft)
25.12.2013 20:50 3,4 C 81 % 999,1 hPa 0,0 l/m 0,0 km/h (0 Bft) N 360 0,5 C 4,7 C 0,0 km/h (0 Bft)
25.12.2013 20:55 3,8 C 82 % 999,1 hPa 0,0 l/m 1,0 km/h (0 Bft) N-NW 337 1,0 C 4,7 C 1,9 km/h (1 Bft)
25.12.2013 21:00 3,7 C 82 % 999,1 hPa 0,0 l/m 1,0 km/h (0 Bft) N-NW 337 0,9 C 4,8 C 0,0 km/h (0 Bft)
25.12.2013 21:05 3,6 C 82 % 998,8 hPa 0,0 l/m 0,6 km/h (0 Bft) N-NW 337 0,8 C 4,8 C 0,0 km/h (0 Bft)
25.12.2013 21:10 3,5 C 82 % 998,8 hPa 0,0 l/m 0,2 km/h (0 Bft) N 360 0,7 C 4,7 C 0,0 km/h (0 Bft)
25.12.2013 21:15 3,5 C 82 % 998,8 hPa 0,0 l/m 0,3 km/h (0 Bft) NW 315 0,7 C 4,7 C 3,5 km/h (1 Bft)
25.12.2013 21:20 3,5 C 82 % 998,8 hPa 0,0 l/m 0,6 km/h (0 Bft) N-NW 337 0,7 C 4,7 C 2,4 km/h (1 Bft)
25.12.2013 21:25 3,4 C 82 % 998,9 hPa 0,0 l/m 1,0 km/h (0 Bft) W-NW 292 0,6 C 4,7 C 0,0 km/h (0 Bft)
25.12.2013 21:30 3,3 C 82 % 998,9 hPa 0,0 l/m 0,5 km/h (0 Bft) W-NW 292 0,5 C 4,5 C 0,0 km/h (0 Bft)
25.12.2013 21:35 3,2 C 82 % 998,9 hPa 0,0 l/m 0,0 km/h (0 Bft) NW 315 0,4 C 4,5 C 0,0 km/h (0 Bft)
25.12.2013 21:40 3,2 C 82 % 998,9 hPa 0,0 l/m 0,0 km/h (0 Bft) N 360 0,4 C 4,4 C 0,0 km/h (0 Bft)
25.12.2013 21:45 3,1 C 82 % 998,9 hPa 0,0 l/m 0,0 km/h (0 Bft) N-NW 337 0,3 C 4,3 C 0,0 km/h (0 Bft)
25.12.2013 21:50 3,2 C 82 % 998,9 hPa 0,0 l/m 0,3 km/h (0 Bft) N 360 0,4 C 4,4 C 3,2 km/h (1 Bft)
25.12.2013 21:55 3,6 C 83 % 998,9 hPa 0,0 l/m 1,0 km/h (0 Bft) N 360 1,0 C 4,5 C 0,0 km/h (0 Bft)
25.12.2013 22:00 3,5 C 83 % 998,9 hPa 0,0 l/m 1,4 km/h (1 Bft) NO 45 0,9 C 4,5 C 4,8 km/h (1 Bft)
25.12.2013 22:05 3,6 C 84 % 998,6 hPa 0,0 l/m 2,3 km/h (1 Bft) N 360 1,2 C 4,6 C 1,8 km/h (1 Bft)
25.12.2013 22:10 3,6 C 84 % 998,6 hPa 0,0 l/m 2,4 km/h (1 Bft) N 360 1,2 C 4,7 C 1,8 km/h (1 Bft)
25.12.2013 22:15 3,6 C 84 % 998,6 hPa 0,0 l/m 1,9 km/h (1 Bft) N 360 1,2 C 4,7 C 0,0 km/h (0 Bft)
25.12.2013 22:20 3,5 C 84 % 998,6 hPa 0,0 l/m 2,1 km/h (1 Bft) N-NW 337 1,1 C 4,7 C 2,9 km/h (1 Bft)
25.12.2013 22:25 3,7 C 85 % 998,4 hPa 0,0 l/m 2,3 km/h (1 Bft) W-NW 292 1,4 C 4,7 C 2,6 km/h (1 Bft)
25.12.2013 22:30 3,8 C 86 % 998,4 hPa 0,0 l/m 2,6 km/h (1 Bft) NW 315 1,7 C 4,7 C 2,4 km/h (1 Bft)
25.12.2013 22:35 3,8 C 86 % 998,4 hPa 0,0 l/m 2,7 km/h (1 Bft) N-NW 337 1,7 C 4,7 C 4,8 km/h (1 Bft)
25.12.2013 22:40 3,8 C 86 % 998,4 hPa 0,0 l/m 2,7 km/h (1 Bft) N-NW 337 1,7 C 4,6 C 2,3 km/h (1 Bft)
25.12.2013 22:45 3,8 C 86 % 998,2 hPa 0,0 l/m 3,1 km/h (1 Bft) NW 315 1,7 C 4,6 C 3,7 km/h (1 Bft)
25.12.2013 22:50 3,8 C 86 % 998,2 hPa 0,0 l/m 2,4 km/h (1 Bft) N 360 1,7 C 4,6 C 3,2 km/h (1 Bft)
25.12.2013 22:55 3,9 C 86 % 998,2 hPa 0,0 l/m 2,4 km/h (1 Bft) NW 315 1,8 C 4,6 C 1,9 km/h (1 Bft)
25.12.2013 23:00 3,9 C 86 % 998,2 hPa 0,0 l/m 2,7 km/h (1 Bft) NW 315 1,8 C 4,6 C 2,7 km/h (1 Bft)
25.12.2013 23:05 3,8 C 86 % 998,2 hPa 0,0 l/m 2,6 km/h (1 Bft) N-NW 337 1,7 C 4,6 C 4,5 km/h (1 Bft)
25.12.2013 23:10 3,8 C 86 % 998,2 hPa 0,0 l/m 3,7 km/h (1 Bft) N-NW 337 1,7 C 4,2 C 7,4 km/h (2 Bft)
25.12.2013 23:15 3,9 C 87 % 998,2 hPa 0,0 l/m 4,2 km/h (1 Bft) W-NW 292 1,9 C 4,0 C 3,9 km/h (1 Bft)
25.12.2013 23:20 3,8 C 86 % 998,2 hPa 0,0 l/m 4,0 km/h (1 Bft) NW 315 1,7 C 4,1 C 5,8 km/h (2 Bft)
25.12.2013 23:25 3,7 C 86 % 998,1 hPa 0,0 l/m 2,9 km/h (1 Bft) N-NW 337 1,6 C 4,5 C 0,0 km/h (0 Bft)
25.12.2013 23:30 3,8 C 87 % 998,1 hPa 0,0 l/m 2,3 km/h (1 Bft) N-NW 337 1,8 C 4,5 C 1,9 km/h (1 Bft)
25.12.2013 23:35 3,7 C 87 % 998,1 hPa 0,0 l/m 3,4 km/h (1 Bft) N-NW 337 1,7 C 4,3 C 4,8 km/h (1 Bft)
25.12.2013 23:40 3,6 C 87 % 998,1 hPa 0,0 l/m 3,7 km/h (1 Bft) W-NW 292 1,6 C 4,0 C 6,0 km/h (2 Bft)
25.12.2013 23:45 3,7 C 87 % 997,9 hPa 0,0 l/m 4,2 km/h (1 Bft) W-NW 292 1,7 C 3,7 C 4,5 km/h (1 Bft)
25.12.2013 23:50 3,6 C 87 % 997,9 hPa 0,0 l/m 4,5 km/h (1 Bft) N-NO 22 1,6 C 3,6 C 6,1 km/h (2 Bft)
25.12.2013 23:55 3,6 C 87 % 997,9 hPa 0,0 l/m 4,7 km/h (1 Bft) N-NW 337 1,6 C 3,5 C 8,5 km/h (2 Bft)
_ Min-Zeit 21:45 07:15 15:00 - 21:45 - - 07:25 17:50 23:25
Minimum _ 3,1 C 36 % 996,2 hPa - 0,0 km/h (0 Bft) - - -3,5 C 2,4 C 0,0 km/h (0 Bft)
_ Max-Zeit 11:25 23:55 00:40 23:55 07:05 - - 23:15 13:30 02:30
Maximum _ 12,3 C 87 % 1002,4 hPa 0,0 l/m 10,6 km/h
SO (2 Bft)
- - 1,9 C 14,2 C 32,5 km/h
O (5 Bft)
Durchschnitt _ 8,4 C 54 % 998,6 hPa #0,0 l/m 4,5 km/h (1 Bft) N-NW - -1,0 C 9,4 C 5,8 km/h (2 Bft)